Time;durP1;ratioP1;P1;durP2;ratioP2;P2;SDS_P1;SDS_P2;PMS_P1;PMS_P2;Temp;Humidity;BMP_temperature;BMP_pressure;BME280_temperature;BME280_humidity;BME280_pressure;Samples;Min_cycle;Max_cycle;Signal;HPM_P1;HPM_P2
2023/04/23 00:01:12;;;;;;;16.60;14.90;;;14.30;89.00;;;;;;5016368;28;20181;-88
2023/04/23 00:03:41;;;;;;;16.67;14.27;;;14.30;89.10;;;;;;5017293;28;20222;-88
2023/04/23 00:06:09;;;;;;;16.07;14.63;;;14.30;89.30;;;;;;5016744;28;20551;-88
2023/04/23 00:08:38;;;;;;;18.20;16.13;;;14.20;89.50;;;;;;5016194;28;20204;-88
2023/04/23 00:11:05;;;;;;;17.33;15.63;;;14.20;89.70;;;;;;5016675;28;20177;-89
2023/04/23 00:13:30;;;;;;;17.80;16.10;;;14.20;89.80;;;;;;5016602;28;20200;-88
2023/04/23 00:15:56;;;;;;;17.07;15.27;;;14.10;90.10;;;;;;5016080;28;20564;-88
2023/04/23 00:18:22;;;;;;;18.27;16.47;;;14.10;90.30;;;;;;5016029;28;20209;-88
2023/04/23 00:20:48;;;;;;;18.47;16.73;;;14.10;90.30;;;;;;5016100;28;20183;-88
2023/04/23 00:23:14;;;;;;;23.00;20.80;;;14.10;90.30;;;;;;5016179;28;20172;-88
2023/04/23 00:25:39;;;;;;;22.73;20.57;;;14.10;90.50;;;;;;5016122;28;20663;-88
2023/04/23 00:28:05;;;;;;;24.43;22.13;;;14.10;90.60;;;;;;5033736;28;20175;-88
2023/04/23 00:30:32;;;;;;;24.00;21.87;;;14.00;90.60;;;;;;5016365;28;20209;-88
2023/04/23 00:32:58;;;;;;;21.07;19.07;;;14.00;90.70;;;;;;5015890;28;20177;-88
2023/04/23 00:35:23;;;;;;;20.30;18.30;;;14.00;90.80;;;;;;5015988;28;20242;-88
2023/04/23 00:37:49;;;;;;;22.67;20.23;;;14.00;91.00;;;;;;5016122;28;20551;-89
2023/04/23 00:40:15;;;;;;;24.80;22.60;;;14.00;91.20;;;;;;5016572;28;20216;-88
2023/04/23 00:42:40;;;;;;;25.40;22.87;;;13.90;91.40;;;;;;5033474;28;20175;-89
2023/04/23 00:45:11;;;;;;;26.13;23.30;;;13.90;91.50;;;;;;5015983;28;20168;-89
2023/04/23 00:47:36;;;;;;;26.37;23.87;;;13.90;91.60;;;;;;5015707;28;20208;-89
2023/04/23 00:50:02;;;;;;;23.83;21.40;;;13.90;91.60;;;;;;5015766;28;20205;-89
2023/04/23 00:52:28;;;;;;;24.83;22.33;;;14.00;91.70;;;;;;5015974;28;20184;-89
2023/04/23 00:54:54;;;;;;;27.63;24.93;;;13.90;91.80;;;;;;5033354;28;20172;-89
2023/04/23 00:57:21;;;;;;;26.90;24.37;;;13.90;91.90;;;;;;5033120;28;20314;-89
2023/04/23 00:59:47;;;;;;;52.57;46.87;;;13.90;91.90;;;;;;5015595;28;20169;-89
2023/04/23 01:02:13;;;;;;;60.70;54.07;;;13.60;91.30;;;;;;5015104;28;20180;-89
2023/04/23 01:04:42;;;;;;;58.57;49.70;;;13.10;90.50;;;;;;5015825;28;20218;-89
2023/04/23 01:07:08;;;;;;;56.13;46.33;;;12.70;89.20;;;;;;5033165;28;20280;-89
2023/04/23 01:09:34;;;;;;;53.27;46.13;;;12.20;87.90;;;;;;5033118;28;20261;-89
2023/04/23 01:12:01;;;;;;;53.03;46.20;;;12.00;88.20;;;;;;5015504;28;20208;-89
2023/04/23 01:14:27;;;;;;;54.17;48.23;;;11.70;88.10;;;;;;5033094;28;20172;-89
2023/04/23 01:16:52;;;;;;;57.80;49.63;;;11.50;89.30;;;;;;5015224;28;20231;-89
2023/04/23 01:19:18;;;;;;;54.67;45.87;;;11.30;89.40;;;;;;5015554;28;20164;-89
2023/04/23 01:21:44;;;;;;;55.43;44.97;;;11.30;89.70;;;;;;5015432;28;20639;-90
2023/04/23 01:24:11;;;;;;;57.97;47.07;;;11.10;90.30;;;;;;5033350;28;20172;-89
2023/04/23 01:26:38;;;;;;;59.33;49.03;;;11.10;90.40;;;;;;5015190;28;20192;-91
2023/04/23 01:29:04;;;;;;;62.90;50.50;;;10.90;90.60;;;;;;5032857;28;20177;-92
2023/04/23 01:31:30;;;;;;;65.73;49.83;;;10.80;90.90;;;;;;5015354;28;20230;-91
2023/04/23 01:33:57;;;;;;;60.30;48.53;;;10.80;91.30;;;;;;5015281;28;20303;-91
2023/04/23 01:36:24;;;;;;;62.50;51.43;;;10.70;91.30;;;;;;5015451;28;20204;-90
2023/04/23 01:38:50;;;;;;;62.57;47.53;;;10.80;91.50;;;;;;5015331;28;20177;-90
2023/04/23 01:41:16;;;;;;;61.23;46.30;;;11.00;91.40;;;;;;5015243;28;20279;-90
2023/04/23 01:43:42;;;;;;;69.57;53.03;;;10.80;91.00;;;;;;5016033;28;20627;-90
2023/04/23 01:46:09;;;;;;;70.13;49.70;;;10.80;91.20;;;;;;5015093;28;20599;-90
2023/04/23 01:48:35;;;;;;;64.57;47.90;;;10.70;91.40;;;;;;5032747;28;20169;-91
2023/04/23 01:51:01;;;;;;;56.93;48.20;;;10.60;91.50;;;;;;5015399;28;20173;-90
2023/04/23 01:53:27;;;;;;;59.87;44.87;;;10.70;91.70;;;;;;5015029;28;20554;-91
2023/04/23 01:55:55;;;;;;;56.93;41.00;;;10.70;91.70;;;;;;5014942;28;20729;-91
2023/04/23 01:58:22;;;;;;;53.50;39.33;;;10.70;91.60;;;;;;5014917;28;20208;-91
2023/04/23 02:00:48;;;;;;;51.27;38.73;;;10.50;91.60;;;;;;5015236;28;20645;-91
2023/04/23 02:03:14;;;;;;;40.77;34.03;;;10.40;91.60;;;;;;5032631;28;20169;-92
2023/04/23 02:05:40;;;;;;;40.50;32.47;;;10.50;91.60;;;;;;5015455;28;20177;-91
2023/04/23 02:08:06;;;;;;;37.30;30.03;;;10.40;91.50;;;;;;5015213;28;20647;-91
2023/04/23 02:10:32;;;;;;;37.63;26.30;;;10.30;91.70;;;;;;5015003;28;20276;-92
2023/04/23 02:12:58;;;;;;;32.70;22.17;;;10.30;91.60;;;;;;5033681;28;20715;-91
2023/04/23 02:15:24;;;;;;;25.03;20.03;;;10.30;91.80;;;;;;5036138;28;20196;-91
2023/04/23 02:17:51;;;;;;;25.20;19.43;;;10.20;91.90;;;;;;5036075;28;20725;-91
2023/04/23 02:20:17;;;;;;;22.43;15.57;;;10.20;92.00;;;;;;5036115;28;20161;-91
2023/04/23 02:22:44;;;;;;;21.83;17.37;;;10.10;92.00;;;;;;5036289;28;20226;-91
2023/04/23 02:25:10;;;;;;;17.50;15.30;;;10.10;92.20;;;;;;5018173;28;20263;-91
2023/04/23 02:27:36;;;;;;;22.63;14.70;;;10.10;92.10;;;;;;5035850;28;20216;-90
2023/04/23 02:30:02;;;;;;;17.27;13.30;;;10.10;92.10;;;;;;5018154;28;20181;-91
2023/04/23 02:32:28;;;;;;;19.77;13.83;;;10.00;92.20;;;;;;5018092;28;20185;-91
2023/04/23 02:34:54;;;;;;;18.57;14.03;;;9.90;92.10;;;;;;5018047;28;20230;-91
2023/04/23 02:37:20;;;;;;;24.53;13.63;;;9.90;92.20;;;;;;5035551;28;20212;-91
2023/04/23 02:39:45;;;;;;;20.83;18.17;;;9.80;92.30;;;;;;5018984;28;20644;-91
2023/04/23 02:42:12;;;;;;;20.97;18.53;;;9.90;92.40;;;;;;5035622;28;20220;-91
2023/04/23 02:44:38;;;;;;;26.63;18.37;;;9.90;92.20;;;;;;5017888;28;20204;-91
2023/04/23 02:47:03;;;;;;;22.03;19.70;;;9.80;92.20;;;;;;5017791;28;20222;-90
2023/04/23 02:49:29;;;;;;;20.93;18.37;;;9.90;92.20;;;;;;5017810;28;20552;-90
2023/04/23 02:51:55;;;;;;;17.90;14.43;;;9.90;92.20;;;;;;5017838;28;20176;-90
2023/04/23 02:54:20;;;;;;;18.77;14.73;;;9.90;92.00;;;;;;5017638;28;20598;-91
2023/04/23 02:56:46;;;;;;;25.40;18.47;;;9.80;92.10;;;;;;5017467;28;20204;-90
2023/04/23 02:59:12;;;;;;;22.00;16.23;;;9.80;92.20;;;;;;5018271;28;20181;-91
2023/04/23 03:01:37;;;;;;;21.43;15.80;;;9.80;92.30;;;;;;5035350;28;20175;-91
2023/04/23 03:04:03;;;;;;;20.27;16.00;;;9.80;92.10;;;;;;5017832;28;20267;-90
2023/04/23 03:06:30;;;;;;;18.67;15.77;;;9.80;92.20;;;;;;5017633;28;20227;-90
2023/04/23 03:08:56;;;;;;;16.37;11.70;;;9.80;92.10;;;;;;5017409;28;20198;-91
2023/04/23 03:11:22;;;;;;;17.63;12.07;;;9.70;92.20;;;;;;5017617;28;20226;-91
2023/04/23 03:13:47;;;;;;;17.33;15.53;;;9.80;92.10;;;;;;5017540;28;20173;-90
2023/04/23 03:16:13;;;;;;;20.77;15.27;;;9.70;92.00;;;;;;5035077;28;20573;-91
2023/04/23 03:18:39;;;;;;;18.87;16.00;;;9.80;92.20;;;;;;5017163;28;20176;-90
2023/04/23 03:21:05;;;;;;;19.13;15.87;;;9.70;92.10;;;;;;5017328;28;20169;-90
2023/04/23 03:23:31;;;;;;;17.87;15.50;;;9.70;92.10;;;;;;5017282;28;20173;-90
2023/04/23 03:25:56;;;;;;;19.07;13.03;;;9.70;92.20;;;;;;5016270;28;20631;-90
2023/04/23 03:28:22;;;;;;;15.23;12.27;;;9.70;92.30;;;;;;5035108;28;20180;-90
2023/04/23 03:30:47;;;;;;;17.03;12.93;;;9.70;92.30;;;;;;5016876;28;20179;-90
2023/04/23 03:33:13;;;;;;;21.23;15.40;;;9.70;92.30;;;;;;5017022;28;20177;-90
2023/04/23 03:35:39;;;;;;;19.93;16.10;;;9.60;92.20;;;;;;5017052;28;20519;-90
2023/04/23 03:38:04;;;;;;;20.07;15.13;;;9.70;92.40;;;;;;5016936;28;20647;-90
2023/04/23 03:40:30;;;;;;;17.80;15.50;;;9.70;92.30;;;;;;5016851;28;20180;-90
2023/04/23 03:42:56;;;;;;;21.77;15.17;;;9.70;92.10;;;;;;5034476;28;20172;-90
2023/04/23 03:45:22;;;;;;;18.57;12.23;;;9.60;92.10;;;;;;5017719;28;20536;-90
2023/04/23 03:47:48;;;;;;;13.97;10.97;;;9.70;92.20;;;;;;5034294;28;20208;-90
2023/04/23 03:50:13;;;;;;;18.23;15.67;;;9.70;92.10;;;;;;5034602;28;20188;-90
2023/04/23 03:52:39;;;;;;;18.60;15.27;;;9.80;92.10;;;;;;5016609;28;20181;-90
2023/04/23 03:55:06;;;;;;;16.80;15.20;;;9.80;92.10;;;;;;5017369;28;20267;-90
2023/04/23 03:57:32;;;;;;;16.17;14.50;;;9.70;91.90;;;;;;5016344;28;20219;-90
2023/04/23 03:59:57;;;;;;;19.23;15.60;;;9.70;91.90;;;;;;5034227;28;20169;-89
2023/04/23 04:02:23;;;;;;;18.10;12.40;;;9.60;91.80;;;;;;5016313;28;20180;-90
2023/04/23 04:04:50;;;;;;;13.00;11.67;;;9.70;91.90;;;;;;5034057;28;20268;-89
2023/04/23 04:07:16;;;;;;;17.53;15.53;;;9.70;91.70;;;;;;5034090;28;20759;-90
2023/04/23 04:09:42;;;;;;;19.43;16.23;;;9.70;91.70;;;;;;5016294;28;20271;-90
2023/04/23 04:12:07;;;;;;;17.77;15.97;;;9.60;91.60;;;;;;5016239;28;20211;-90
2023/04/23 04:14:33;;;;;;;21.67;16.33;;;9.50;91.50;;;;;;5016280;28;20181;-90
2023/04/23 04:16:58;;;;;;;19.23;17.43;;;9.30;91.40;;;;;;5033771;28;20208;-90
2023/04/23 04:19:24;;;;;;;19.10;14.53;;;9.30;91.60;;;;;;5033760;28;20169;-90
2023/04/23 04:21:50;;;;;;;19.53;14.97;;;9.30;91.60;;;;;;5033819;28;20164;-90
2023/04/23 04:24:17;;;;;;;16.67;14.97;;;9.30;91.60;;;;;;5033793;28;20168;-90
2023/04/23 04:26:44;;;;;;;17.40;15.10;;;9.20;91.70;;;;;;5016143;28;20197;-90
2023/04/23 04:29:10;;;;;;;15.43;13.90;;;9.20;91.70;;;;;;5033744;28;20168;-90
2023/04/23 04:31:36;;;;;;;20.23;15.60;;;9.20;91.80;;;;;;5015899;28;20180;-90
2023/04/23 04:34:01;;;;;;;18.47;15.57;;;9.30;91.80;;;;;;5033605;28;20183;-90
2023/04/23 04:36:27;;;;;;;21.00;15.87;;;9.20;91.60;;;;;;5015948;28;20216;-90
2023/04/23 04:38:59;;;;;;;17.73;15.83;;;9.20;91.60;;;;;;5033504;28;20168;-90
2023/04/23 04:41:26;;;;;;;18.30;15.00;;;9.20;91.70;;;;;;5015870;28;20161;-89
2023/04/23 04:43:52;;;;;;;16.70;14.63;;;9.00;91.50;;;;;;5015923;28;20176;-90
2023/04/23 04:46:20;;;;;;;22.43;20.23;;;8.90;91.70;;;;;;5015661;28;20193;-90
2023/04/23 04:48:46;;;;;;;25.00;20.10;;;8.90;92.00;;;;;;5015757;28;20179;-90
2023/04/23 04:51:12;;;;;;;23.70;21.30;;;8.80;92.00;;;;;;5015805;28;20242;-90
2023/04/23 04:53:37;;;;;;;23.97;21.13;;;8.90;92.20;;;;;;5015694;28;20529;-90
2023/04/23 04:56:03;;;;;;;25.93;22.00;;;8.80;92.30;;;;;;5015611;28;20597;-90
2023/04/23 04:58:29;;;;;;;25.30;17.43;;;8.80;92.60;;;;;;5015539;28;20196;-90
2023/04/23 05:00:55;;;;;;;25.07;16.97;;;8.90;92.70;;;;;;5015566;28;20572;-90
2023/04/23 05:03:20;;;;;;;23.00;20.40;;;8.90;92.70;;;;;;5015940;28;20176;-90
2023/04/23 05:05:49;;;;;;;23.73;20.70;;;8.90;92.80;;;;;;5033134;28;20179;-89
2023/04/23 05:08:20;;;;;;;23.50;18.37;;;8.90;92.80;;;;;;5015723;28;20270;-90
2023/04/23 05:10:45;;;;;;;23.77;19.50;;;8.90;92.90;;;;;;5015947;28;20172;-90
2023/04/23 05:13:11;;;;;;;24.33;19.67;;;8.90;93.00;;;;;;5015950;28;20181;-90
2023/04/23 05:15:54;;;;;;;20.87;16.10;;;8.90;93.00;;;;;;5015378;28;20661;-90
2023/04/23 05:18:20;;;;;;;22.43;15.83;;;9.00;93.00;;;;;;5015571;28;20196;-90
2023/04/23 05:20:46;;;;;;;21.17;18.47;;;9.00;93.00;;;;;;5015639;28;20235;-90
2023/04/23 05:23:11;;;;;;;20.30;18.13;;;9.10;92.90;;;;;;5015531;28;20676;-90
2023/04/23 05:25:37;;;;;;;23.47;17.23;;;9.10;92.90;;;;;;5015391;28;20168;-90
2023/04/23 05:28:03;;;;;;;19.30;17.07;;;9.00;92.70;;;;;;5032915;28;20264;-90
2023/04/23 05:30:29;;;;;;;18.83;16.87;;;9.10;92.70;;;;;;5033020;28;20176;-90
2023/04/23 05:32:54;;;;;;;20.00;16.87;;;9.10;92.70;;;;;;5015281;28;20176;-90
2023/04/23 05:35:20;;;;;;;17.63;13.57;;;9.10;92.60;;;;;;5016131;28;20207;-90
2023/04/23 05:37:46;;;;;;;15.97;13.50;;;9.10;92.70;;;;;;5033377;28;20558;-90
2023/04/23 05:40:12;;;;;;;22.97;15.97;;;9.10;92.70;;;;;;5015178;28;20255;-90
2023/04/23 05:42:37;;;;;;;16.80;15.10;;;9.10;92.60;;;;;;5032812;28;20172;-90
2023/04/23 05:45:03;;;;;;;23.67;16.10;;;9.20;92.60;;;;;;5015552;28;20604;-89
2023/04/23 05:47:29;;;;;;;19.70;15.47;;;9.20;92.60;;;;;;5033070;28;20689;-89
2023/04/23 05:49:58;;;;;;;18.13;16.37;;;9.20;92.50;;;;;;5019811;28;20262;-90
2023/04/23 05:52:24;;;;;;;19.60;13.53;;;9.20;92.50;;;;;;5018994;28;20228;-89
2023/04/23 05:54:50;;;;;;;18.90;15.47;;;9.20;92.40;;;;;;5018787;28;20193;-90
2023/04/23 05:57:16;;;;;;;29.50;19.77;;;9.30;92.40;;;;;;5036489;28;20205;-90
2023/04/23 05:59:42;;;;;;;23.63;18.93;;;9.30;92.30;;;;;;5018860;28;20172;-89
2023/04/23 06:02:13;;;;;;;21.27;18.87;;;9.40;92.30;;;;;;5018735;28;20670;-90
2023/04/23 06:04:38;;;;;;;22.47;19.90;;;9.40;92.00;;;;;;5036752;28;20605;-90
2023/04/23 06:07:05;;;;;;;25.23;19.63;;;9.60;92.20;;;;;;5018595;28;20292;-90
2023/04/23 06:09:31;;;;;;;23.77;17.23;;;9.80;92.40;;;;;;5018756;28;20180;-89
2023/04/23 06:11:56;;;;;;;21.40;16.77;;;9.80;92.10;;;;;;5036330;28;20177;-89
2023/04/23 06:14:22;;;;;;;23.67;17.83;;;9.80;91.90;;;;;;5018471;28;20183;-89
2023/04/23 06:16:47;;;;;;;25.37;20.43;;;9.90;92.00;;;;;;5018372;28;20683;-90
2023/04/23 06:19:13;;;;;;;28.20;20.80;;;9.70;91.50;;;;;;5018507;28;20243;-89
2023/04/23 06:21:39;;;;;;;24.10;20.80;;;9.90;91.60;;;;;;5018477;28;20212;-89
2023/04/23 06:24:06;;;;;;;26.40;20.27;;;9.90;91.40;;;;;;5036375;28;20173;-89
2023/04/23 06:26:32;;;;;;;20.87;15.97;;;10.10;91.30;;;;;;5036045;28;20241;-89
2023/04/23 06:28:58;;;;;;;25.00;17.50;;;9.90;90.80;;;;;;5036007;28;20232;-89
2023/04/23 06:31:23;;;;;;;22.70;17.50;;;9.80;90.60;;;;;;5018236;28;20184;-89
2023/04/23 06:33:49;;;;;;;24.40;21.77;;;9.80;90.50;;;;;;5035845;28;20168;-90
2023/04/23 06:36:14;;;;;;;24.63;20.40;;;9.90;90.60;;;;;;5018047;28;20686;-90
2023/04/23 06:38:40;;;;;;;22.07;19.77;;;9.90;90.50;;;;;;5018012;28;20690;-90
2023/04/23 06:41:06;;;;;;;22.97;20.57;;;10.10;90.40;;;;;;5035850;28;20180;-89
2023/04/23 06:43:33;;;;;;;23.73;21.23;;;10.00;90.40;;;;;;5018077;28;20176;-90
2023/04/23 06:45:58;;;;;;;22.60;17.47;;;10.10;90.20;;;;;;5017831;28;20196;-89
2023/04/23 06:48:25;;;;;;;25.83;17.13;;;10.00;89.90;;;;;;5017996;28;20544;-89
2023/04/23 06:50:50;;;;;;;24.80;19.93;;;9.90;89.40;;;;;;5018631;28;20191;-88
2023/04/23 06:53:16;;;;;;;28.87;20.67;;;10.10;89.70;;;;;;5018599;28;20271;-89
2023/04/23 06:55:42;;;;;;;23.97;18.77;;;10.20;89.80;;;;;;5018001;28;20219;-90
2023/04/23 06:58:08;;;;;;;24.63;18.30;;;10.20;89.50;;;;;;5035581;28;20236;-89
2023/04/23 07:00:33;;;;;;;23.27;19.80;;;10.30;89.50;;;;;;5016426;28;20207;-89
2023/04/23 07:02:59;;;;;;;20.93;17.50;;;10.20;89.00;;;;;;5035296;28;20222;-89
2023/04/23 07:05:24;;;;;;;22.10;18.30;;;10.30;89.30;;;;;;5035249;28;20216;-89
2023/04/23 07:07:50;;;;;;;26.87;23.97;;;10.10;89.10;;;;;;5017487;28;20208;-89
2023/04/23 07:10:16;;;;;;;26.73;23.53;;;10.20;89.50;;;;;;5017507;28;20655;-89
2023/04/23 07:12:41;;;;;;;25.73;23.13;;;10.20;89.30;;;;;;5035192;28;20697;-89
2023/04/23 07:15:07;;;;;;;26.63;22.90;;;10.20;89.30;;;;;;5035128;28;20184;-89
2023/04/23 07:17:33;;;;;;;28.33;23.00;;;10.20;88.80;;;;;;5018040;28;20226;-89
2023/04/23 07:19:59;;;;;;;22.10;19.03;;;10.30;88.50;;;;;;5017563;28;20181;-89
2023/04/23 07:22:25;;;;;;;22.43;17.77;;;10.20;88.40;;;;;;5017277;28;20749;-89
2023/04/23 07:24:53;;;;;;;25.73;23.00;;;10.30;88.10;;;;;;5018022;28;20173;-89
2023/04/23 07:27:19;;;;;;;24.37;21.70;;;10.30;88.00;;;;;;5017293;28;20291;-89
2023/04/23 07:29:45;;;;;;;23.33;20.97;;;10.30;87.70;;;;;;5017155;28;20204;-89
2023/04/23 07:32:10;;;;;;;23.13;20.83;;;10.40;87.60;;;;;;5017443;28;20643;-89
2023/04/23 07:34:36;;;;;;;23.43;21.13;;;10.40;86.80;;;;;;5017060;28;20274;-89
2023/04/23 07:37:02;;;;;;;17.77;15.97;;;10.50;87.00;;;;;;5034308;28;20268;-89
2023/04/23 07:39:28;;;;;;;18.57;15.17;;;10.60;86.90;;;;;;5017628;28;20230;-89
2023/04/23 07:41:54;;;;;;;26.87;21.07;;;10.60;87.60;;;;;;5034576;28;20177;-89
2023/04/23 07:44:19;;;;;;;22.93;20.87;;;10.50;87.00;;;;;;5034564;28;20259;-89
2023/04/23 07:46:45;;;;;;;22.80;20.57;;;10.50;87.20;;;;;;5035044;28;20673;-89
2023/04/23 07:49:10;;;;;;;23.17;20.13;;;10.60;87.20;;;;;;5016893;28;20728;-90
2023/04/23 07:51:36;;;;;;;22.70;20.43;;;10.40;85.60;;;;;;5016895;28;20188;-89
2023/04/23 07:54:02;;;;;;;17.10;14.83;;;10.50;86.40;;;;;;5017579;28;20180;-88
2023/04/23 07:56:31;;;;;;;16.20;14.53;;;10.50;86.20;;;;;;5017168;28;20793;-88
2023/04/23 07:58:57;;;;;;;17.57;15.27;;;10.60;85.80;;;;;;5034248;28;20647;-89
2023/04/23 08:01:23;;;;;;;21.70;19.53;;;10.70;85.90;;;;;;5016539;28;20176;-89
2023/04/23 08:03:49;;;;;;;22.17;19.87;;;10.80;86.00;;;;;;5016860;28;20647;-90
2023/04/23 08:06:14;;;;;;;23.43;21.03;;;10.60;85.20;;;;;;5017750;28;20219;-89
2023/04/23 08:08:40;;;;;;;28.37;22.33;;;10.70;85.90;;;;;;5016582;28;20263;-90
2023/04/23 08:11:06;;;;;;;24.27;21.80;;;10.70;86.00;;;;;;5034000;28;20199;-90
2023/04/23 08:13:32;;;;;;;22.17;15.63;;;10.70;85.50;;;;;;5016216;28;20671;-90
2023/04/23 08:15:57;;;;;;;20.43;15.93;;;10.80;85.80;;;;;;5016202;28;20566;-88
2023/04/23 08:18:23;;;;;;;20.40;16.60;;;11.00;85.90;;;;;;5016428;28;20204;-88
2023/04/23 08:20:49;;;;;;;20.00;16.27;;;10.90;84.80;;;;;;5016548;28;20267;-89
2023/04/23 08:23:15;;;;;;;21.60;15.40;;;10.90;84.90;;;;;;5034112;28;20181;-89
2023/04/23 08:25:40;;;;;;;19.80;16.63;;;11.00;85.10;;;;;;5016281;28;20176;-87
2023/04/23 08:28:06;;;;;;;19.53;17.50;;;11.00;84.90;;;;;;5016473;28;20184;-90
2023/04/23 08:30:32;;;;;;;19.10;15.77;;;11.00;85.00;;;;;;5015929;28;20185;-90
2023/04/23 08:32:57;;;;;;;20.87;17.60;;;11.00;84.60;;;;;;5033717;28;20173;-90
2023/04/23 08:35:23;;;;;;;25.10;22.40;;;10.90;84.50;;;;;;5033856;28;20590;-90
2023/04/23 08:38:14;;;;;;;26.73;23.67;;;11.10;84.70;;;;;;5016359;28;20593;-90
2023/04/23 08:40:41;;;;;;;24.47;22.13;;;11.10;85.20;;;;;;5016155;28;20181;-90
2023/04/23 08:43:16;;;;;;;26.43;23.93;;;11.10;84.20;;;;;;5016006;28;20180;-91
2023/04/23 08:45:45;;;;;;;27.17;24.10;;;11.20;84.90;;;;;;5033535;28;20161;-92
2023/04/23 08:48:11;;;;;;;22.53;17.67;;;11.20;84.70;;;;;;5016112;28;20187;-91
2023/04/23 08:50:40;;;;;;;23.17;19.97;;;11.20;84.20;;;;;;5016169;28;20177;-92
2023/04/23 08:53:06;;;;;;;28.33;25.60;;;11.30;84.20;;;;;;5016362;28;20191;-91
2023/04/23 08:55:33;;;;;;;24.80;22.33;;;11.30;84.10;;;;;;5033601;28;20248;-90
2023/04/23 08:58:00;;;;;;;26.47;23.30;;;11.50;83.70;;;;;;5015782;28;20368;-90
2023/04/23 09:00:25;;;;;;;28.43;25.80;;;11.70;83.90;;;;;;5033298;28;20206;-90
2023/04/23 09:02:51;;;;;;;28.40;25.70;;;11.60;82.30;;;;;;5015533;28;20177;-90
2023/04/23 09:05:17;;;;;;;23.83;20.20;;;11.70;83.50;;;;;;5015650;28;20534;-90
2023/04/23 09:07:43;;;;;;;23.53;19.77;;;11.80;83.40;;;;;;5015982;28;20211;-88
2023/04/23 09:10:11;;;;;;;29.57;26.57;;;11.80;82.30;;;;;;5015609;28;20260;-90
2023/04/23 09:12:39;;;;;;;29.80;26.87;;;11.90;81.90;;;;;;5015546;28;20188;-90
2023/04/23 09:15:09;;;;;;;30.10;27.03;;;11.90;81.70;;;;;;5015700;28;20180;-90
2023/04/23 09:17:38;;;;;;;27.80;24.93;;;11.90;81.90;;;;;;5033260;28;20208;-90
2023/04/23 09:20:05;;;;;;;25.87;23.33;;;12.00;81.30;;;;;;5016533;28;20272;-90
2023/04/23 09:22:43;;;;;;;20.80;18.80;;;12.30;81.60;;;;;;5016031;28;20204;-90
2023/04/23 09:25:10;;;;;;;23.53;21.17;;;12.30;79.80;;;;;;5037064;28;20176;-90
2023/04/23 09:27:36;;;;;;;26.43;23.67;;;12.60;80.10;;;;;;5037032;28;20220;-90
2023/04/23 09:30:06;;;;;;;28.97;26.23;;;12.90;79.10;;;;;;5019278;28;20184;-90
2023/04/23 09:32:34;;;;;;;29.37;26.70;;;13.10;79.10;;;;;;5037034;28;20219;-90
2023/04/23 09:35:04;;;;;;;29.23;26.33;;;12.90;78.00;;;;;;5037206;28;20179;-91
2023/04/23 09:37:30;;;;;;;20.83;18.70;;;12.90;77.20;;;;;;5019142;28;20319;-90
2023/04/23 09:40:02;;;;;;;21.73;19.50;;;12.80;76.50;;;;;;5020002;28;20556;-90
2023/04/23 09:42:28;;;;;;;27.67;24.87;;;13.20;77.80;;;;;;5019702;28;20184;-90
2023/04/23 09:45:03;;;;;;;32.50;29.67;;;13.10;75.80;;;;;;5019037;28;20185;-90
2023/04/23 09:47:39;;;;;;;31.37;28.53;;;13.10;75.20;;;;;;5036977;28;20206;-90
2023/04/23 09:50:06;;;;;;;30.77;28.17;;;13.20;75.40;;;;;;5036683;28;20649;-90
2023/04/23 09:52:32;;;;;;;24.90;22.50;;;13.60;75.40;;;;;;5036955;28;20181;-90
2023/04/23 09:55:01;;;;;;;24.47;22.13;;;13.60;73.40;;;;;;5036586;28;20583;-90
2023/04/23 09:57:27;;;;;;;24.70;22.30;;;13.70;73.00;;;;;;5036390;28;20243;-90
2023/04/23 09:59:56;;;;;;;24.60;22.13;;;13.80;73.50;;;;;;5019057;28;20597;-90
2023/04/23 10:02:27;;;;;;;25.03;22.63;;;13.80;73.30;;;;;;5018875;28;20181;-90
2023/04/23 10:04:53;;;;;;;25.00;22.70;;;14.20;72.30;;;;;;5036451;28;20168;-89
2023/04/23 10:07:19;;;;;;;25.33;22.83;;;14.10;70.10;;;;;;5036226;28;20200;-89
2023/04/23 10:09:45;;;;;;;26.20;23.70;;;14.10;72.00;;;;;;5036335;28;20191;-89
2023/04/23 10:12:12;;;;;;;24.33;22.13;;;14.10;71.80;;;;;;5018853;28;20181;-89
2023/04/23 10:14:39;;;;;;;24.30;22.10;;;14.20;71.20;;;;;;5036186;28;20185;-89
2023/04/23 10:17:06;;;;;;;24.73;22.50;;;14.30;71.70;;;;;;5036080;28;20266;-89
2023/04/23 10:19:32;;;;;;;24.03;21.87;;;14.30;71.00;;;;;;5036119;28;20204;-89
2023/04/23 10:22:04;;;;;;;23.63;21.55;;;14.70;70.80;;;;;;5036094;28;20181;-90
2023/04/23 10:24:36;;;;;;;32.40;29.50;;;15.00;69.10;;;;;;5018289;28;20180;-89
2023/04/23 10:27:03;;;;;;;32.45;29.65;;;15.20;69.50;;;;;;5035798;28;20583;-89
2023/04/23 10:29:31;;;;;;;32.80;29.58;;;15.10;69.00;;;;;;5035794;28;20180;-89
2023/04/23 10:32:02;;;;;;;32.85;30.05;;;15.00;68.00;;;;;;5036158;28;20177;-89
2023/04/23 10:34:29;;;;;;;24.25;22.35;;;15.20;66.00;;;;;;5017990;28;20185;-89
2023/04/23 10:36:56;;;;;;;24.67;22.48;;;15.10;66.10;;;;;;5017777;28;20242;-89
2023/04/23 10:39:23;;;;;;;32.90;30.17;;;15.50;68.50;;;;;;5035791;28;20195;-89
2023/04/23 10:41:51;;;;;;;33.25;30.58;;;15.50;66.60;;;;;;5018048;28;20201;-89
2023/04/23 10:44:20;;;;;;;35.47;32.53;;;15.40;65.00;;;;;;5035757;28;20165;-89
2023/04/23 10:46:57;;;;;;;36.10;33.08;;;15.50;65.90;;;;;;5018593;28;20576;-89
2023/04/23 10:49:24;;;;;;;29.83;27.10;;;15.80;67.70;;;;;;5018191;28;20215;-89
2023/04/23 10:51:59;;;;;;;29.02;26.40;;;16.10;67.00;;;;;;5035912;28;20264;-89
2023/04/23 10:54:30;;;;;;;27.63;25.27;;;16.10;63.90;;;;;;5018232;28;20161;-89
2023/04/23 10:57:02;;;;;;;35.60;32.63;;;15.90;64.10;;;;;;5035249;28;20203;-89
2023/04/23 10:59:29;;;;;;;35.60;32.70;;;15.90;65.80;;;;;;5035400;28;20222;-89
2023/04/23 11:01:59;;;;;;;36.03;32.92;;;16.00;65.60;;;;;;5035426;28;20173;-89
2023/04/23 11:04:28;;;;;;;27.63;25.23;;;16.20;62.30;;;;;;5017857;28;20180;-89
2023/04/23 11:06:56;;;;;;;28.63;25.98;;;16.30;63.10;;;;;;5017412;28;20204;-89
2023/04/23 11:09:29;;;;;;;36.20;33.25;;;16.00;63.00;;;;;;5017867;28;20188;-89
2023/04/23 11:11:56;;;;;;;35.33;32.53;;;16.00;65.00;;;;;;5035128;28;20247;-89
2023/04/23 11:14:34;;;;;;;37.92;34.80;;;16.20;63.50;;;;;;5017722;28;20181;-89
2023/04/23 11:17:00;;;;;;;36.15;33.15;;;16.20;62.70;;;;;;5018010;28;20208;-89
2023/04/23 11:19:26;;;;;;;29.13;26.65;;;16.20;61.30;;;;;;5017318;28;20192;-89
2023/04/23 11:22:07;;;;;;;28.75;26.35;;;16.10;61.60;;;;;;5017283;28;20184;-89
2023/04/23 11:24:41;;;;;;;37.38;34.08;;;16.20;60.30;;;;;;5017346;28;20161;-89
2023/04/23 11:27:08;;;;;;;37.40;34.30;;;16.60;61.60;;;;;;5017405;28;20204;-89
2023/04/23 11:29:36;;;;;;;35.70;32.80;;;16.60;60.80;;;;;;5034757;28;20173;-89
2023/04/23 11:32:04;;;;;;;27.77;25.48;;;16.80;62.70;;;;;;5017341;28;20181;-89
2023/04/23 11:34:31;;;;;;;26.38;24.17;;;17.10;62.30;;;;;;5017202;28;20651;-89
2023/04/23 11:36:58;;;;;;;25.38;23.27;;;17.20;62.30;;;;;;5017607;28;20213;-89
2023/04/23 11:39:24;;;;;;;32.08;29.48;;;16.90;60.40;;;;;;5034597;28;20173;-89
2023/04/23 11:41:51;;;;;;;30.92;28.52;;;17.10;60.20;;;;;;5017309;28;20173;-89
2023/04/23 11:44:18;;;;;;;32.00;29.60;;;17.00;61.30;;;;;;5017110;28;20177;-89
2023/04/23 11:46:46;;;;;;;27.60;25.40;;;17.20;61.10;;;;;;5016323;28;20216;-89
2023/04/23 11:49:12;;;;;;;24.13;22.13;;;17.30;61.40;;;;;;5016637;28;20192;-89
2023/04/23 11:51:43;;;;;;;23.02;21.17;;;17.30;60.70;;;;;;5016656;28;20180;-89
2023/04/23 11:54:09;;;;;;;31.48;29.08;;;17.20;58.40;;;;;;5034415;28;20176;-89
2023/04/23 11:56:36;;;;;;;29.88;27.45;;;17.60;58.10;;;;;;5016480;28;20331;-89
2023/04/23 11:59:03;;;;;;;30.67;27.98;;;17.90;59.30;;;;;;5016521;28;20181;-89
2023/04/23 12:01:39;;;;;;;31.17;28.67;;;17.60;60.00;;;;;;5017192;28;20180;-89
2023/04/23 12:04:13;;;;;;;22.38;20.48;;;17.40;58.50;;;;;;5017335;28;20180;-89
2023/04/23 12:06:41;;;;;;;22.25;20.45;;;17.80;59.60;;;;;;5034143;28;20185;-89
2023/04/23 12:09:06;;;;;;;31.90;29.13;;;17.90;58.20;;;;;;5034254;28;20165;-89
2023/04/23 12:11:34;;;;;;;30.75;28.45;;;17.70;59.00;;;;;;5016639;28;20177;-89
2023/04/23 12:13:59;;;;;;;31.30;28.60;;;17.60;59.40;;;;;;5033901;28;20538;-89
2023/04/23 12:16:39;;;;;;;28.77;26.67;;;17.90;57.90;;;;;;5033816;28;20192;-89
2023/04/23 12:19:12;;;;;;;22.85;21.05;;;17.80;57.80;;;;;;5016190;28;20548;-89
2023/04/23 12:21:47;;;;;;;23.05;21.05;;;17.70;57.90;;;;;;5033856;28;20703;-89
2023/04/23 12:24:13;;;;;;;28.83;26.40;;;18.20;58.40;;;;;;5016010;28;20173;-89
2023/04/23 12:26:41;;;;;;;28.02;25.83;;;18.30;57.00;;;;;;5016055;28;20211;-89
2023/04/23 12:29:06;;;;;;;29.08;26.73;;;18.50;55.30;;;;;;5016852;28;20635;-89